Hewitt, WI (54441)

8:49 PM CST on February 21, 2017 (GMT -0600)
2nd St | | Change Station
Active Advisory: Flood Warning

Elev 1221 ft 44.64 °N, 90.10 °W | Updated 4 minutes ago

Mostly Cloudy
Mostly Cloudy
50.5 °F
Feels Like 50.5 °F
N
3.0
Wind Variable Wind from SSW
Gusts 3.0 mph

Today
High -- | Low -- °F
--% Chance of Precip.
Yesterday
High -- | Low -- °F
Precip. -- in
Pressure 29.79 in
Visibility 10.0 miles
Clouds Clear
Dew Point 32 °F
Humidity 49%
Rainfall 0.00 in
Snow Depth Not available.
6:50 AM 5:37 PM
Waning Crescent, 21% visible
METAR KMFI 220154Z AUTO 21005KT 10SM CLR 09/00 A2977 RMK AO2 SLP088 T00940000
Pressure 29.79 in
Visibility 10.0 miles
Clouds Clear
Dew Point 32 °F
Humidity 49%
Rainfall 0.00 in
Snow Depth Not available.
6:50 AM 5:37 PM
Waning Crescent, 21% visible
METAR KMFI 220154Z AUTO 21005KT 10SM CLR 09/00 A2977 RMK AO2 SLP088 T00940000

Get Your Daily Forecast Email!

Thanks for signing up!

Be on the lookout for a verification email in your inbox.

You'll start receiving the daily forecast at 8 AM.

×

10-Day Weather Forecast

Almanac

Astronomy

Feb. 21, 2017 Rise Set
Actual Time
Civil Twilight
Nautical Twilight
Astronomical Twilight
Moon
Length of Visible Light
Length of Day
Tomorrow will be .
, % of the Moon is Illuminated

Today's Extremes

State Highs State Lows

Community

WunderPhotos

Upload Photos

1,962,540 photos uploaded!

WunderBlog® & News

Nearby

Air Quality

  Air Quality AQ Index Pollutant
Not available.

Snow Depth

Station Depth Elevation

Earthquake Activity

City Distance Mag. Time & Date
Minimum magnitude displayed is 2.5.

Coastal Water Temperatures

Place Temperature

Stations

Nearby Weather Stations

Station Location Temp. Windchill Dew Point Humidity Wind Precip. Elev Updated Type
                   

Watches & Warnings

Flood Warning
Issued: 8:30 PM CST Feb. 21, 2017 – National Weather Service

The Flood Warning continues for
the Yellow River at Pittsville.
* At 3:00 PM Tuesday the stage was 15.0 feet.
* Flood stage is 13.0 feet.
* At 16.0 feet... floodwaters are covering bower street and portions
of highways E and b.


Lat... Lon 4464 9030 4465 9019 4451 9010 4438 9007
      4438 9017 4453 9022




742 PM CST Tue Feb 21 2017

The Flood Warning continues for
the Yellow River at Babcock.
* At 7:00 PM Tuesday the stage was 14.6 feet.
* Flood stage is 12.0 feet.
* Minor flooding is occurring and minor flooding is forecast.
* Forecast... the river will continue rising to near 15.1 feet by
after midnight tomorrow. The river will fall below flood stage
tomorrow early afternoon.
* At 15.6 feet... floodwaters are near a couple of homes in the
Babcock area near Highway 173.


Lat... Lon 4441 9019 4441 9007 4425 9007 4425 9019